sensor_id;sensor_type;location;lat;lon;timestamp;P1;durP1;ratioP1;P2;durP2;ratioP2
16440;SDS011;8330;-33.858;151.184;2024-01-30T00:02:11;9.35;;;3.13;;
16440;SDS011;8330;-33.858;151.184;2024-01-30T00:04:42;10.23;;;3.00;;
16440;SDS011;8330;-33.858;151.184;2024-01-30T00:07:15;8.13;;;2.80;;
16440;SDS011;8330;-33.858;151.184;2024-01-30T00:09:46;9.75;;;3.03;;
16440;SDS011;8330;-33.858;151.184;2024-01-30T00:12:17;9.13;;;3.15;;
16440;SDS011;8330;-33.858;151.184;2024-01-30T00:14:48;6.97;;;2.70;;
16440;SDS011;8330;-33.858;151.184;2024-01-30T00:17:19;8.80;;;2.78;;
16440;SDS011;8330;-33.858;151.184;2024-01-30T00:19:51;10.13;;;3.05;;
16440;SDS011;8330;-33.858;151.184;2024-01-30T00:22:24;8.98;;;2.97;;
16440;SDS011;8330;-33.858;151.184;2024-01-30T00:24:57;9.63;;;2.97;;
16440;SDS011;8330;-33.858;151.184;2024-01-30T00:27:29;7.60;;;2.80;;
16440;SDS011;8330;-33.858;151.184;2024-01-30T00:30:00;10.82;;;3.05;;
16440;SDS011;8330;-33.858;151.184;2024-01-30T00:32:31;12.05;;;3.13;;
16440;SDS011;8330;-33.858;151.184;2024-01-30T00:35:01;7.68;;;2.60;;
16440;SDS011;8330;-33.858;151.184;2024-01-30T00:37:34;12.18;;;3.15;;
16440;SDS011;8330;-33.858;151.184;2024-01-30T00:40:05;11.63;;;3.00;;
16440;SDS011;8330;-33.858;151.184;2024-01-30T00:42:41;11.65;;;3.05;;
16440;SDS011;8330;-33.858;151.184;2024-01-30T00:45:12;7.88;;;2.67;;
16440;SDS011;8330;-33.858;151.184;2024-01-30T00:47:44;5.82;;;2.45;;
16440;SDS011;8330;-33.858;151.184;2024-01-30T00:50:15;9.23;;;3.05;;
16440;SDS011;8330;-33.858;151.184;2024-01-30T00:52:48;6.75;;;2.50;;
16440;SDS011;8330;-33.858;151.184;2024-01-30T00:55:18;7.43;;;2.60;;
16440;SDS011;8330;-33.858;151.184;2024-01-30T00:57:49;10.25;;;2.70;;
16440;SDS011;8330;-33.858;151.184;2024-01-30T01:00:20;7.47;;;2.30;;
16440;SDS011;8330;-33.858;151.184;2024-01-30T01:02:55;7.93;;;2.88;;
16440;SDS011;8330;-33.858;151.184;2024-01-30T01:05:26;8.68;;;2.80;;
16440;SDS011;8330;-33.858;151.184;2024-01-30T01:07:59;7.22;;;2.83;;
16440;SDS011;8330;-33.858;151.184;2024-01-30T01:10:29;6.45;;;2.50;;
16440;SDS011;8330;-33.858;151.184;2024-01-30T01:13:00;8.88;;;2.70;;
16440;SDS011;8330;-33.858;151.184;2024-01-30T01:15:31;8.90;;;2.67;;
16440;SDS011;8330;-33.858;151.184;2024-01-30T01:18:02;10.13;;;2.75;;
16440;SDS011;8330;-33.858;151.184;2024-01-30T01:20:33;7.97;;;2.75;;
16440;SDS011;8330;-33.858;151.184;2024-01-30T01:23:06;7.47;;;2.80;;
16440;SDS011;8330;-33.858;151.184;2024-01-30T01:25:37;8.65;;;3.25;;
16440;SDS011;8330;-33.858;151.184;2024-01-30T01:28:07;10.48;;;3.03;;
16440;SDS011;8330;-33.858;151.184;2024-01-30T01:30:38;9.35;;;2.70;;
16440;SDS011;8330;-33.858;151.184;2024-01-30T01:33:09;8.15;;;2.95;;
16440;SDS011;8330;-33.858;151.184;2024-01-30T01:35:40;9.25;;;3.53;;
16440;SDS011;8330;-33.858;151.184;2024-01-30T01:38:13;7.28;;;2.72;;
16440;SDS011;8330;-33.858;151.184;2024-01-30T01:40:43;6.78;;;2.42;;
16440;SDS011;8330;-33.858;151.184;2024-01-30T01:43:14;7.63;;;2.67;;
16440;SDS011;8330;-33.858;151.184;2024-01-30T01:45:45;9.55;;;3.03;;
16440;SDS011;8330;-33.858;151.184;2024-01-30T01:48:16;8.32;;;2.88;;
16440;SDS011;8330;-33.858;151.184;2024-01-30T01:50:47;12.85;;;3.20;;
16440;SDS011;8330;-33.858;151.184;2024-01-30T01:53:20;14.23;;;3.53;;
16440;SDS011;8330;-33.858;151.184;2024-01-30T01:55:51;11.48;;;3.45;;
16440;SDS011;8330;-33.858;151.184;2024-01-30T01:58:23;11.13;;;3.40;;
16440;SDS011;8330;-33.858;151.184;2024-01-30T02:00:58;8.23;;;2.95;;
16440;SDS011;8330;-33.858;151.184;2024-01-30T02:03:29;12.68;;;3.55;;
16440;SDS011;8330;-33.858;151.184;2024-01-30T02:06:00;9.48;;;3.00;;
16440;SDS011;8330;-33.858;151.184;2024-01-30T02:08:33;8.02;;;3.10;;
16440;SDS011;8330;-33.858;151.184;2024-01-30T02:11:06;9.65;;;3.35;;
16440;SDS011;8330;-33.858;151.184;2024-01-30T02:13:38;8.93;;;3.10;;
16440;SDS011;8330;-33.858;151.184;2024-01-30T02:16:09;7.22;;;2.72;;
16440;SDS011;8330;-33.858;151.184;2024-01-30T02:18:40;10.55;;;3.20;;
16440;SDS011;8330;-33.858;151.184;2024-01-30T02:21:15;8.95;;;3.00;;
16440;SDS011;8330;-33.858;151.184;2024-01-30T02:23:47;9.93;;;3.30;;
16440;SDS011;8330;-33.858;151.184;2024-01-30T02:26:19;10.45;;;3.05;;
16440;SDS011;8330;-33.858;151.184;2024-01-30T02:28:50;8.65;;;2.80;;
16440;SDS011;8330;-33.858;151.184;2024-01-30T02:31:21;9.73;;;2.88;;
16440;SDS011;8330;-33.858;151.184;2024-01-30T02:33:53;10.70;;;3.05;;
16440;SDS011;8330;-33.858;151.184;2024-01-30T02:36:26;8.70;;;2.80;;
16440;SDS011;8330;-33.858;151.184;2024-01-30T02:38:57;7.35;;;2.45;;
16440;SDS011;8330;-33.858;151.184;2024-01-30T02:41:27;8.52;;;2.72;;
16440;SDS011;8330;-33.858;151.184;2024-01-30T02:43:58;8.93;;;2.47;;
16440;SDS011;8330;-33.858;151.184;2024-01-30T02:46:29;8.23;;;2.83;;
16440;SDS011;8330;-33.858;151.184;2024-01-30T02:49:00;10.70;;;2.95;;
16440;SDS011;8330;-33.858;151.184;2024-01-30T02:51:33;10.00;;;2.42;;
16440;SDS011;8330;-33.858;151.184;2024-01-30T02:54:03;7.72;;;2.42;;
16440;SDS011;8330;-33.858;151.184;2024-01-30T02:56:34;11.57;;;2.75;;
16440;SDS011;8330;-33.858;151.184;2024-01-30T02:59:05;8.93;;;2.40;;
16440;SDS011;8330;-33.858;151.184;2024-01-30T03:01:42;11.00;;;2.50;;
16440;SDS011;8330;-33.858;151.184;2024-01-30T03:04:14;8.50;;;2.28;;
16440;SDS011;8330;-33.858;151.184;2024-01-30T03:06:49;11.20;;;2.40;;
16440;SDS011;8330;-33.858;151.184;2024-01-30T03:09:20;10.70;;;2.53;;
16440;SDS011;8330;-33.858;151.184;2024-01-30T03:11:50;7.10;;;2.05;;
16440;SDS011;8330;-33.858;151.184;2024-01-30T03:14:21;10.82;;;2.60;;
16440;SDS011;8330;-33.858;151.184;2024-01-30T03:16:52;9.57;;;2.22;;
16440;SDS011;8330;-33.858;151.184;2024-01-30T03:19:23;7.28;;;2.22;;
16440;SDS011;8330;-33.858;151.184;2024-01-30T03:21:56;8.82;;;2.38;;
16440;SDS011;8330;-33.858;151.184;2024-01-30T03:24:27;9.75;;;2.33;;
16440;SDS011;8330;-33.858;151.184;2024-01-30T03:26:58;11.02;;;2.65;;
16440;SDS011;8330;-33.858;151.184;2024-01-30T03:29:28;10.77;;;2.58;;
16440;SDS011;8330;-33.858;151.184;2024-01-30T03:31:59;8.38;;;2.60;;
16440;SDS011;8330;-33.858;151.184;2024-01-30T03:34:30;10.75;;;2.53;;
16440;SDS011;8330;-33.858;151.184;2024-01-30T03:37:03;7.97;;;2.30;;
16440;SDS011;8330;-33.858;151.184;2024-01-30T03:39:34;11.43;;;2.63;;
16440;SDS011;8330;-33.858;151.184;2024-01-30T03:42:04;7.45;;;2.10;;
16440;SDS011;8330;-33.858;151.184;2024-01-30T03:44:35;9.23;;;2.25;;
16440;SDS011;8330;-33.858;151.184;2024-01-30T03:47:06;8.98;;;2.20;;
16440;SDS011;8330;-33.858;151.184;2024-01-30T03:49:37;8.25;;;2.60;;
16440;SDS011;8330;-33.858;151.184;2024-01-30T03:52:10;12.00;;;2.85;;
16440;SDS011;8330;-33.858;151.184;2024-01-30T03:54:40;10.57;;;2.55;;
16440;SDS011;8330;-33.858;151.184;2024-01-30T03:57:11;12.95;;;3.00;;
16440;SDS011;8330;-33.858;151.184;2024-01-30T03:59:42;14.52;;;2.95;;
16440;SDS011;8330;-33.858;151.184;2024-01-30T04:02:13;9.95;;;2.30;;
16440;SDS011;8330;-33.858;151.184;2024-01-30T04:04:44;8.57;;;2.30;;
16440;SDS011;8330;-33.858;151.184;2024-01-30T04:07:16;11.48;;;3.05;;
16440;SDS011;8330;-33.858;151.184;2024-01-30T04:09:47;5.93;;;2.10;;
16440;SDS011;8330;-33.858;151.184;2024-01-30T04:12:18;8.85;;;2.47;;
16440;SDS011;8330;-33.858;151.184;2024-01-30T04:14:48;7.53;;;2.15;;
16440;SDS011;8330;-33.858;151.184;2024-01-30T04:17:19;9.85;;;2.20;;
16440;SDS011;8330;-33.858;151.184;2024-01-30T04:19:50;7.43;;;2.30;;
16440;SDS011;8330;-33.858;151.184;2024-01-30T04:22:23;9.27;;;2.63;;
16440;SDS011;8330;-33.858;151.184;2024-01-30T04:24:53;8.02;;;2.28;;
16440;SDS011;8330;-33.858;151.184;2024-01-30T04:27:24;10.77;;;2.60;;
16440;SDS011;8330;-33.858;151.184;2024-01-30T04:29:55;9.35;;;2.40;;
16440;SDS011;8330;-33.858;151.184;2024-01-30T04:32:26;10.05;;;2.50;;
16440;SDS011;8330;-33.858;151.184;2024-01-30T04:34:56;6.88;;;2.30;;
16440;SDS011;8330;-33.858;151.184;2024-01-30T04:37:29;9.18;;;1.98;;
16440;SDS011;8330;-33.858;151.184;2024-01-30T04:40:00;7.25;;;2.22;;
16440;SDS011;8330;-33.858;151.184;2024-01-30T04:42:31;7.03;;;2.35;;
16440;SDS011;8330;-33.858;151.184;2024-01-30T04:45:02;7.05;;;1.98;;
16440;SDS011;8330;-33.858;151.184;2024-01-30T04:47:33;9.23;;;2.50;;
16440;SDS011;8330;-33.858;151.184;2024-01-30T04:50:03;11.68;;;2.70;;
16440;SDS011;8330;-33.858;151.184;2024-01-30T04:52:37;15.68;;;3.25;;
16440;SDS011;8330;-33.858;151.184;2024-01-30T04:55:08;8.27;;;2.50;;
16440;SDS011;8330;-33.858;151.184;2024-01-30T04:57:38;9.10;;;2.80;;
16440;SDS011;8330;-33.858;151.184;2024-01-30T05:00:10;9.60;;;2.38;;
16440;SDS011;8330;-33.858;151.184;2024-01-30T05:02:41;9.50;;;2.50;;
16440;SDS011;8330;-33.858;151.184;2024-01-30T05:05:13;17.02;;;3.38;;
16440;SDS011;8330;-33.858;151.184;2024-01-30T05:07:46;14.23;;;2.92;;
16440;SDS011;8330;-33.858;151.184;2024-01-30T05:10:16;18.45;;;2.53;;
16440;SDS011;8330;-33.858;151.184;2024-01-30T05:12:47;11.00;;;2.70;;
16440;SDS011;8330;-33.858;151.184;2024-01-30T05:15:18;9.30;;;2.33;;
16440;SDS011;8330;-33.858;151.184;2024-01-30T05:17:49;13.82;;;2.72;;
16440;SDS011;8330;-33.858;151.184;2024-01-30T05:20:20;8.98;;;2.35;;
16440;SDS011;8330;-33.858;151.184;2024-01-30T05:22:56;10.65;;;2.58;;
16440;SDS011;8330;-33.858;151.184;2024-01-30T05:25:26;12.50;;;2.65;;
16440;SDS011;8330;-33.858;151.184;2024-01-30T05:27:57;11.52;;;3.05;;
16440;SDS011;8330;-33.858;151.184;2024-01-30T05:30:28;10.68;;;2.65;;
16440;SDS011;8330;-33.858;151.184;2024-01-30T05:32:58;14.20;;;3.05;;
16440;SDS011;8330;-33.858;151.184;2024-01-30T05:35:30;13.13;;;2.58;;
16440;SDS011;8330;-33.858;151.184;2024-01-30T05:38:02;11.30;;;3.08;;
16440;SDS011;8330;-33.858;151.184;2024-01-30T05:40:34;10.18;;;2.58;;
16440;SDS011;8330;-33.858;151.184;2024-01-30T05:43:04;12.05;;;2.97;;
16440;SDS011;8330;-33.858;151.184;2024-01-30T05:45:35;13.48;;;3.10;;
16440;SDS011;8330;-33.858;151.184;2024-01-30T05:48:06;8.77;;;2.53;;
16440;SDS011;8330;-33.858;151.184;2024-01-30T05:50:37;9.40;;;2.75;;
16440;SDS011;8330;-33.858;151.184;2024-01-30T05:53:09;13.18;;;2.83;;
16440;SDS011;8330;-33.858;151.184;2024-01-30T05:55:40;9.63;;;2.70;;
16440;SDS011;8330;-33.858;151.184;2024-01-30T05:58:11;11.65;;;2.90;;
16440;SDS011;8330;-33.858;151.184;2024-01-30T06:00:42;9.63;;;2.47;;
16440;SDS011;8330;-33.858;151.184;2024-01-30T06:03:13;11.15;;;2.63;;
16440;SDS011;8330;-33.858;151.184;2024-01-30T06:05:43;8.40;;;2.60;;
16440;SDS011;8330;-33.858;151.184;2024-01-30T06:08:16;12.20;;;2.97;;
16440;SDS011;8330;-33.858;151.184;2024-01-30T06:10:47;11.13;;;2.85;;
16440;SDS011;8330;-33.858;151.184;2024-01-30T06:13:18;10.20;;;2.88;;
16440;SDS011;8330;-33.858;151.184;2024-01-30T06:15:49;9.82;;;2.42;;
16440;SDS011;8330;-33.858;151.184;2024-01-30T06:18:19;16.55;;;3.30;;
16440;SDS011;8330;-33.858;151.184;2024-01-30T06:20:50;10.73;;;2.88;;
16440;SDS011;8330;-33.858;151.184;2024-01-30T06:23:23;9.23;;;2.88;;
16440;SDS011;8330;-33.858;151.184;2024-01-30T06:25:54;9.82;;;2.88;;
16440;SDS011;8330;-33.858;151.184;2024-01-30T06:28:24;10.30;;;2.70;;
16440;SDS011;8330;-33.858;151.184;2024-01-30T06:30:55;10.98;;;3.00;;
16440;SDS011;8330;-33.858;151.184;2024-01-30T06:33:26;11.63;;;2.88;;
16440;SDS011;8330;-33.858;151.184;2024-01-30T06:35:56;12.63;;;2.92;;
16440;SDS011;8330;-33.858;151.184;2024-01-30T06:38:29;12.27;;;3.22;;
16440;SDS011;8330;-33.858;151.184;2024-01-30T06:41:00;9.52;;;2.95;;
16440;SDS011;8330;-33.858;151.184;2024-01-30T06:43:31;14.85;;;3.17;;
16440;SDS011;8330;-33.858;151.184;2024-01-30T06:46:02;17.38;;;3.72;;
16440;SDS011;8330;-33.858;151.184;2024-01-30T06:48:32;9.32;;;2.60;;
16440;SDS011;8330;-33.858;151.184;2024-01-30T06:51:06;12.93;;;2.83;;
16440;SDS011;8330;-33.858;151.184;2024-01-30T06:53:40;16.30;;;3.05;;
16440;SDS011;8330;-33.858;151.184;2024-01-30T06:56:10;16.65;;;3.40;;
16440;SDS011;8330;-33.858;151.184;2024-01-30T06:58:41;11.80;;;2.92;;
16440;SDS011;8330;-33.858;151.184;2024-01-30T07:01:12;13.55;;;3.20;;
16440;SDS011;8330;-33.858;151.184;2024-01-30T07:03:43;11.73;;;3.00;;
16440;SDS011;8330;-33.858;151.184;2024-01-30T07:06:13;17.35;;;3.47;;
16440;SDS011;8330;-33.858;151.184;2024-01-30T07:08:46;11.95;;;3.05;;
16440;SDS011;8330;-33.858;151.184;2024-01-30T07:11:18;12.95;;;3.20;;
16440;SDS011;8330;-33.858;151.184;2024-01-30T07:13:50;15.70;;;3.40;;
16440;SDS011;8330;-33.858;151.184;2024-01-30T07:16:21;16.50;;;3.90;;
16440;SDS011;8330;-33.858;151.184;2024-01-30T07:18:52;12.68;;;3.30;;
16440;SDS011;8330;-33.858;151.184;2024-01-30T07:21:22;17.63;;;3.75;;
16440;SDS011;8330;-33.858;151.184;2024-01-30T07:23:56;20.05;;;3.70;;
16440;SDS011;8330;-33.858;151.184;2024-01-30T07:26:27;14.02;;;3.33;;
16440;SDS011;8330;-33.858;151.184;2024-01-30T07:28:57;12.02;;;3.03;;
16440;SDS011;8330;-33.858;151.184;2024-01-30T07:31:28;11.65;;;3.08;;
16440;SDS011;8330;-33.858;151.184;2024-01-30T07:33:59;11.45;;;3.05;;
16440;SDS011;8330;-33.858;151.184;2024-01-30T07:36:30;11.50;;;3.15;;
16440;SDS011;8330;-33.858;151.184;2024-01-30T07:39:03;14.35;;;3.20;;
16440;SDS011;8330;-33.858;151.184;2024-01-30T07:41:34;15.98;;;3.35;;
16440;SDS011;8330;-33.858;151.184;2024-01-30T07:44:04;16.42;;;3.40;;
16440;SDS011;8330;-33.858;151.184;2024-01-30T07:46:35;16.23;;;3.33;;
16440;SDS011;8330;-33.858;151.184;2024-01-30T07:49:06;14.80;;;3.38;;
16440;SDS011;8330;-33.858;151.184;2024-01-30T07:51:37;15.55;;;4.00;;
16440;SDS011;8330;-33.858;151.184;2024-01-30T07:54:11;13.18;;;3.58;;
16440;SDS011;8330;-33.858;151.184;2024-01-30T07:56:42;14.13;;;3.88;;
16440;SDS011;8330;-33.858;151.184;2024-01-30T07:59:14;15.82;;;3.40;;
16440;SDS011;8330;-33.858;151.184;2024-01-30T08:01:47;14.05;;;3.05;;
16440;SDS011;8330;-33.858;151.184;2024-01-30T08:04:18;16.70;;;3.53;;
16440;SDS011;8330;-33.858;151.184;2024-01-30T08:06:49;16.48;;;3.60;;
16440;SDS011;8330;-33.858;151.184;2024-01-30T08:09:22;13.52;;;3.35;;
16440;SDS011;8330;-33.858;151.184;2024-01-30T08:11:52;13.95;;;3.55;;
16440;SDS011;8330;-33.858;151.184;2024-01-30T08:14:23;13.05;;;3.70;;
16440;SDS011;8330;-33.858;151.184;2024-01-30T08:16:54;13.52;;;3.58;;
16440;SDS011;8330;-33.858;151.184;2024-01-30T08:19:25;12.70;;;3.60;;
16440;SDS011;8330;-33.858;151.184;2024-01-30T08:21:55;12.18;;;3.50;;
16440;SDS011;8330;-33.858;151.184;2024-01-30T08:24:28;16.52;;;4.00;;
16440;SDS011;8330;-33.858;151.184;2024-01-30T08:26:59;15.35;;;3.53;;
16440;SDS011;8330;-33.858;151.184;2024-01-30T08:29:31;11.93;;;3.22;;
16440;SDS011;8330;-33.858;151.184;2024-01-30T08:32:02;16.35;;;3.78;;
16440;SDS011;8330;-33.858;151.184;2024-01-30T08:34:33;9.88;;;3.30;;
16440;SDS011;8330;-33.858;151.184;2024-01-30T08:37:04;11.80;;;3.28;;
16440;SDS011;8330;-33.858;151.184;2024-01-30T08:39:37;16.52;;;3.80;;
16440;SDS011;8330;-33.858;151.184;2024-01-30T08:42:08;13.40;;;3.55;;
16440;SDS011;8330;-33.858;151.184;2024-01-30T08:44:38;13.18;;;3.30;;
16440;SDS011;8330;-33.858;151.184;2024-01-30T08:47:09;14.57;;;3.33;;
16440;SDS011;8330;-33.858;151.184;2024-01-30T08:49:42;15.25;;;3.95;;
16440;SDS011;8330;-33.858;151.184;2024-01-30T08:52:13;16.58;;;3.67;;
16440;SDS011;8330;-33.858;151.184;2024-01-30T08:54:46;17.35;;;3.58;;
16440;SDS011;8330;-33.858;151.184;2024-01-30T08:57:17;14.60;;;3.95;;
16440;SDS011;8330;-33.858;151.184;2024-01-30T08:59:48;15.50;;;3.38;;
16440;SDS011;8330;-33.858;151.184;2024-01-30T09:02:18;13.35;;;2.80;;
16440;SDS011;8330;-33.858;151.184;2024-01-30T09:04:49;15.88;;;3.50;;
16440;SDS011;8330;-33.858;151.184;2024-01-30T09:07:20;16.10;;;3.53;;
16440;SDS011;8330;-33.858;151.184;2024-01-30T09:09:52;16.85;;;3.83;;
16440;SDS011;8330;-33.858;151.184;2024-01-30T09:12:24;15.00;;;3.60;;
16440;SDS011;8330;-33.858;151.184;2024-01-30T09:14:55;13.25;;;3.22;;
16440;SDS011;8330;-33.858;151.184;2024-01-30T09:17:26;13.30;;;3.47;;
16440;SDS011;8330;-33.858;151.184;2024-01-30T09:19:57;13.90;;;3.13;;
16440;SDS011;8330;-33.858;151.184;2024-01-30T09:22:27;17.58;;;3.60;;
16440;SDS011;8330;-33.858;151.184;2024-01-30T09:25:00;17.80;;;3.90;;
16440;SDS011;8330;-33.858;151.184;2024-01-30T09:27:31;21.20;;;3.80;;
16440;SDS011;8330;-33.858;151.184;2024-01-30T09:30:02;18.85;;;3.70;;
16440;SDS011;8330;-33.858;151.184;2024-01-30T09:32:33;20.73;;;4.13;;
16440;SDS011;8330;-33.858;151.184;2024-01-30T09:35:04;15.90;;;3.45;;
16440;SDS011;8330;-33.858;151.184;2024-01-30T09:37:35;17.13;;;3.55;;
16440;SDS011;8330;-33.858;151.184;2024-01-30T09:40:08;17.88;;;3.58;;
16440;SDS011;8330;-33.858;151.184;2024-01-30T09:42:39;13.15;;;3.17;;
16440;SDS011;8330;-33.858;151.184;2024-01-30T09:45:12;21.25;;;3.85;;
16440;SDS011;8330;-33.858;151.184;2024-01-30T09:47:45;11.32;;;3.25;;
16440;SDS011;8330;-33.858;151.184;2024-01-30T09:50:16;20.92;;;3.88;;
16440;SDS011;8330;-33.858;151.184;2024-01-30T09:52:47;18.35;;;3.50;;
16440;SDS011;8330;-33.858;151.184;2024-01-30T09:55:20;20.15;;;3.63;;
16440;SDS011;8330;-33.858;151.184;2024-01-30T09:57:51;12.38;;;3.40;;
16440;SDS011;8330;-33.858;151.184;2024-01-30T10:00:22;14.80;;;3.60;;
16440;SDS011;8330;-33.858;151.184;2024-01-30T10:02:53;16.77;;;4.10;;
16440;SDS011;8330;-33.858;151.184;2024-01-30T10:05:24;15.88;;;3.97;;
16440;SDS011;8330;-33.858;151.184;2024-01-30T10:08:01;16.98;;;3.95;;
16440;SDS011;8330;-33.858;151.184;2024-01-30T10:10:36;16.30;;;3.83;;
16440;SDS011;8330;-33.858;151.184;2024-01-30T10:13:07;18.65;;;3.92;;
16440;SDS011;8330;-33.858;151.184;2024-01-30T10:15:38;16.25;;;3.45;;
16440;SDS011;8330;-33.858;151.184;2024-01-30T10:18:11;17.50;;;3.50;;
16440;SDS011;8330;-33.858;151.184;2024-01-30T10:20:42;19.10;;;3.55;;
16440;SDS011;8330;-33.858;151.184;2024-01-30T10:23:13;19.92;;;3.63;;
16440;SDS011;8330;-33.858;151.184;2024-01-30T10:25:46;15.52;;;2.80;;
16440;SDS011;8330;-33.858;151.184;2024-01-30T10:28:17;15.05;;;3.67;;
16440;SDS011;8330;-33.858;151.184;2024-01-30T10:30:57;13.65;;;3.05;;
16440;SDS011;8330;-33.858;151.184;2024-01-30T10:33:29;15.88;;;3.22;;
16440;SDS011;8330;-33.858;151.184;2024-01-30T10:36:01;19.48;;;3.63;;
16440;SDS011;8330;-33.858;151.184;2024-01-30T10:38:32;10.90;;;3.10;;
16440;SDS011;8330;-33.858;151.184;2024-01-30T10:41:05;19.40;;;3.95;;
16440;SDS011;8330;-33.858;151.184;2024-01-30T10:43:40;16.55;;;3.33;;
16440;SDS011;8330;-33.858;151.184;2024-01-30T10:46:16;15.27;;;3.28;;
16440;SDS011;8330;-33.858;151.184;2024-01-30T10:48:50;12.48;;;3.03;;
16440;SDS011;8330;-33.858;151.184;2024-01-30T10:51:27;19.58;;;3.45;;
16440;SDS011;8330;-33.858;151.184;2024-01-30T10:53:59;12.63;;;3.20;;
16440;SDS011;8330;-33.858;151.184;2024-01-30T10:56:34;18.65;;;3.55;;
16440;SDS011;8330;-33.858;151.184;2024-01-30T10:59:05;14.70;;;3.58;;
16440;SDS011;8330;-33.858;151.184;2024-01-30T11:01:36;13.93;;;2.90;;
16440;SDS011;8330;-33.858;151.184;2024-01-30T11:04:07;13.88;;;3.33;;
16440;SDS011;8330;-33.858;151.184;2024-01-30T11:06:41;15.13;;;3.67;;
16440;SDS011;8330;-33.858;151.184;2024-01-30T11:09:12;12.25;;;3.30;;
16440;SDS011;8330;-33.858;151.184;2024-01-30T11:11:51;15.65;;;3.38;;
16440;SDS011;8330;-33.858;151.184;2024-01-30T11:14:26;17.75;;;3.40;;
16440;SDS011;8330;-33.858;151.184;2024-01-30T11:16:58;19.38;;;3.55;;
16440;SDS011;8330;-33.858;151.184;2024-01-30T11:19:31;15.32;;;3.45;;
16440;SDS011;8330;-33.858;151.184;2024-01-30T11:22:02;15.65;;;3.10;;
16440;SDS011;8330;-33.858;151.184;2024-01-30T11:24:39;15.60;;;3.92;;
16440;SDS011;8330;-33.858;151.184;2024-01-30T11:27:12;17.50;;;3.80;;
16440;SDS011;8330;-33.858;151.184;2024-01-30T11:29:49;15.48;;;3.63;;
16440;SDS011;8330;-33.858;151.184;2024-01-30T11:32:22;17.67;;;3.38;;
16440;SDS011;8330;-33.858;151.184;2024-01-30T11:34:53;17.27;;;3.70;;
16440;SDS011;8330;-33.858;151.184;2024-01-30T11:37:25;10.65;;;3.15;;
16440;SDS011;8330;-33.858;151.184;2024-01-30T11:39:55;16.40;;;3.40;;
16440;SDS011;8330;-33.858;151.184;2024-01-30T11:42:30;16.75;;;3.58;;
16440;SDS011;8330;-33.858;151.184;2024-01-30T11:45:01;17.20;;;3.50;;
16440;SDS011;8330;-33.858;151.184;2024-01-30T11:47:34;14.82;;;3.42;;
16440;SDS011;8330;-33.858;151.184;2024-01-30T11:50:05;15.80;;;3.70;;
16440;SDS011;8330;-33.858;151.184;2024-01-30T11:52:37;17.08;;;3.50;;
16440;SDS011;8330;-33.858;151.184;2024-01-30T11:55:09;17.20;;;3.30;;
16440;SDS011;8330;-33.858;151.184;2024-01-30T11:57:47;15.73;;;3.22;;
16440;SDS011;8330;-33.858;151.184;2024-01-30T12:00:18;10.18;;;2.80;;
16440;SDS011;8330;-33.858;151.184;2024-01-30T12:02:49;18.05;;;3.45;;
16440;SDS011;8330;-33.858;151.184;2024-01-30T12:05:22;12.68;;;3.10;;
16440;SDS011;8330;-33.858;151.184;2024-01-30T12:07:53;12.55;;;2.92;;
16440;SDS011;8330;-33.858;151.184;2024-01-30T12:10:25;17.95;;;3.78;;
16440;SDS011;8330;-33.858;151.184;2024-01-30T12:12:57;13.23;;;3.00;;
16440;SDS011;8330;-33.858;151.184;2024-01-30T12:15:28;11.27;;;3.05;;
16440;SDS011;8330;-33.858;151.184;2024-01-30T12:18:05;11.00;;;3.17;;
16440;SDS011;8330;-33.858;151.184;2024-01-30T12:20:36;16.95;;;3.60;;
16440;SDS011;8330;-33.858;151.184;2024-01-30T12:23:07;16.65;;;3.55;;
16440;SDS011;8330;-33.858;151.184;2024-01-30T12:25:38;15.55;;;3.45;;
16440;SDS011;8330;-33.858;151.184;2024-01-30T12:28:10;14.18;;;3.53;;
16440;SDS011;8330;-33.858;151.184;2024-01-30T12:30:42;14.10;;;3.40;;
16440;SDS011;8330;-33.858;151.184;2024-01-30T12:33:16;14.10;;;3.50;;
16440;SDS011;8330;-33.858;151.184;2024-01-30T12:35:47;14.15;;;3.50;;
16440;SDS011;8330;-33.858;151.184;2024-01-30T12:38:17;10.60;;;2.85;;
16440;SDS011;8330;-33.858;151.184;2024-01-30T12:40:49;11.80;;;3.30;;
16440;SDS011;8330;-33.858;151.184;2024-01-30T12:43:26;14.73;;;3.50;;
16440;SDS011;8330;-33.858;151.184;2024-01-30T12:45:58;12.95;;;3.58;;
16440;SDS011;8330;-33.858;151.184;2024-01-30T12:48:29;17.40;;;3.60;;
16440;SDS011;8330;-33.858;151.184;2024-01-30T12:51:00;12.98;;;3.15;;
16440;SDS011;8330;-33.858;151.184;2024-01-30T12:53:31;11.82;;;3.38;;
16440;SDS011;8330;-33.858;151.184;2024-01-30T12:56:02;13.27;;;3.47;;
16440;SDS011;8330;-33.858;151.184;2024-01-30T12:58:35;17.27;;;3.60;;
16440;SDS011;8330;-33.858;151.184;2024-01-30T13:01:05;18.58;;;3.95;;
16440;SDS011;8330;-33.858;151.184;2024-01-30T13:03:36;13.35;;;3.47;;
16440;SDS011;8330;-33.858;151.184;2024-01-30T13:06:07;12.45;;;3.42;;
16440;SDS011;8330;-33.858;151.184;2024-01-30T13:08:38;12.18;;;3.05;;
16440;SDS011;8330;-33.858;151.184;2024-01-30T13:11:09;18.67;;;3.53;;
16440;SDS011;8330;-33.858;151.184;2024-01-30T13:13:42;16.30;;;3.55;;
16440;SDS011;8330;-33.858;151.184;2024-01-30T13:16:12;13.20;;;3.35;;
16440;SDS011;8330;-33.858;151.184;2024-01-30T13:18:43;15.63;;;3.40;;
16440;SDS011;8330;-33.858;151.184;2024-01-30T13:21:14;20.95;;;3.70;;
16440;SDS011;8330;-33.858;151.184;2024-01-30T13:23:45;18.10;;;4.03;;
16440;SDS011;8330;-33.858;151.184;2024-01-30T13:26:19;12.77;;;3.35;;
16440;SDS011;8330;-33.858;151.184;2024-01-30T13:28:52;9.90;;;3.40;;
16440;SDS011;8330;-33.858;151.184;2024-01-30T13:31:22;16.80;;;3.13;;
16440;SDS011;8330;-33.858;151.184;2024-01-30T13:33:53;12.32;;;3.00;;
16440;SDS011;8330;-33.858;151.184;2024-01-30T13:36:24;13.75;;;3.92;;
16440;SDS011;8330;-33.858;151.184;2024-01-30T13:38:55;14.88;;;3.42;;
16440;SDS011;8330;-33.858;151.184;2024-01-30T13:41:26;15.20;;;3.55;;
16440;SDS011;8330;-33.858;151.184;2024-01-30T13:43:58;12.95;;;3.20;;
16440;SDS011;8330;-33.858;151.184;2024-01-30T13:46:29;13.65;;;3.40;;
16440;SDS011;8330;-33.858;151.184;2024-01-30T13:49:00;15.18;;;3.90;;
16440;SDS011;8330;-33.858;151.184;2024-01-30T13:51:31;10.57;;;3.00;;
16440;SDS011;8330;-33.858;151.184;2024-01-30T13:54:02;11.80;;;3.40;;
16440;SDS011;8330;-33.858;151.184;2024-01-30T13:56:32;13.75;;;3.30;;
16440;SDS011;8330;-33.858;151.184;2024-01-30T13:59:05;12.77;;;3.50;;
16440;SDS011;8330;-33.858;151.184;2024-01-30T14:01:36;11.43;;;3.35;;
16440;SDS011;8330;-33.858;151.184;2024-01-30T14:04:07;12.70;;;3.70;;
16440;SDS011;8330;-33.858;151.184;2024-01-30T14:06:37;16.60;;;3.47;;
16440;SDS011;8330;-33.858;151.184;2024-01-30T14:09:08;15.75;;;3.50;;
16440;SDS011;8330;-33.858;151.184;2024-01-30T14:11:41;13.15;;;3.53;;
16440;SDS011;8330;-33.858;151.184;2024-01-30T14:14:14;15.63;;;3.85;;
16440;SDS011;8330;-33.858;151.184;2024-01-30T14:16:45;13.07;;;3.78;;
16440;SDS011;8330;-33.858;151.184;2024-01-30T14:19:16;13.73;;;3.40;;
16440;SDS011;8330;-33.858;151.184;2024-01-30T14:21:47;17.55;;;3.78;;
16440;SDS011;8330;-33.858;151.184;2024-01-30T14:24:18;15.73;;;3.70;;
16440;SDS011;8330;-33.858;151.184;2024-01-30T14:26:49;14.65;;;3.40;;
16440;SDS011;8330;-33.858;151.184;2024-01-30T14:29:22;17.73;;;3.80;;
16440;SDS011;8330;-33.858;151.184;2024-01-30T14:31:52;16.75;;;3.45;;
16440;SDS011;8330;-33.858;151.184;2024-01-30T14:34:23;11.85;;;3.35;;
16440;SDS011;8330;-33.858;151.184;2024-01-30T14:36:54;16.00;;;3.80;;
16440;SDS011;8330;-33.858;151.184;2024-01-30T14:39:25;16.05;;;3.63;;